Time;durP1;ratioP1;P1;durP2;ratioP2;P2;SDS_P1;SDS_P2;PMS_P1;PMS_P2;Temp;Humidity;BMP_temperature;BMP_pressure;BME280_temperature;BME280_humidity;BME280_pressure;Samples;Min_cycle;Max_cycle;Signal;HPM_P1;HPM_P2
2021/07/21 00:00:31;;;;;;;14.67;5.80;;;15.60;99.90;;;;;;5037576;28;20891;-84
2021/07/21 00:02:59;;;;;;;15.07;6.37;;;15.60;99.90;;;;;;5035602;28;20445;-84
2021/07/21 00:05:27;;;;;;;15.43;6.63;;;15.60;99.90;;;;;;5035760;28;20488;-84
2021/07/21 00:07:57;;;;;;;14.70;5.53;;;15.50;99.90;;;;;;5036393;28;20459;-83
2021/07/21 00:10:25;;;;;;;14.63;5.73;;;15.50;99.90;;;;;;5034761;28;20483;-84
2021/07/21 00:15:40;;;;;;;15.60;5.90;;;15.40;99.90;;;;;;5017135;28;20513;-85
2021/07/21 00:18:17;;;;;;;13.43;5.40;;;15.40;99.90;;;;;;5016657;28;20567;-84
2021/07/21 00:20:45;;;;;;;15.73;5.37;;;15.30;99.90;;;;;;5016225;28;20465;-84
2021/07/21 00:23:13;;;;;;;14.57;6.47;;;15.30;99.90;;;;;;5018988;28;20450;-84
2021/07/21 00:25:40;;;;;;;15.17;6.67;;;15.30;99.90;;;;;;5035393;28;20499;-85
2021/07/21 00:28:09;;;;;;;13.73;5.73;;;15.30;99.90;;;;;;5035916;28;20471;-83
2021/07/21 00:30:35;;;;;;;15.30;6.37;;;15.30;99.90;;;;;;5035043;28;20843;-84
2021/07/21 00:33:03;;;;;;;14.77;5.93;;;15.20;99.90;;;;;;5035892;28;20456;-85
2021/07/21 00:35:29;;;;;;;15.10;5.80;;;15.20;99.90;;;;;;5036830;28;20464;-84
2021/07/21 00:37:56;;;;;;;14.40;6.30;;;15.20;99.90;;;;;;5037825;28;20945;-84
2021/07/21 00:40:25;;;;;;;16.47;7.10;;;15.10;99.90;;;;;;5038240;28;20468;-85
2021/07/21 00:42:52;;;;;;;13.93;5.70;;;15.10;99.90;;;;;;5039030;28;20460;-84
2021/07/21 00:45:19;;;;;;;16.40;7.20;;;15.00;99.90;;;;;;5055913;28;20483;-84
2021/07/21 00:47:45;;;;;;;14.83;6.37;;;15.00;99.90;;;;;;5058110;28;20452;-84
2021/07/21 00:50:13;;;;;;;13.83;5.80;;;15.00;99.90;;;;;;5059468;28;20472;-84
2021/07/21 00:52:42;;;;;;;15.10;5.83;;;14.90;99.90;;;;;;5058962;28;20458;-84
2021/07/21 00:55:11;;;;;;;16.07;6.50;;;14.90;99.90;;;;;;5042618;28;20529;-84
2021/07/21 00:57:41;;;;;;;13.23;6.00;;;14.90;99.90;;;;;;5038853;28;20547;-84
2021/07/21 01:00:11;;;;;;;12.43;6.20;;;14.80;99.90;;;;;;5038276;28;20476;-84
2021/07/21 01:02:38;;;;;;;13.73;5.93;;;14.80;99.90;;;;;;5039253;28;20456;-86
2021/07/21 01:05:08;;;;;;;14.20;7.17;;;14.80;99.90;;;;;;5038048;28;20847;-86
2021/07/21 01:07:35;;;;;;;13.23;5.80;;;14.90;99.90;;;;;;5036532;28;20461;-86
2021/07/21 01:10:02;;;;;;;12.67;5.70;;;14.90;99.90;;;;;;5035053;28;20571;-85
2021/07/21 01:12:33;;;;;;;13.70;6.30;;;14.80;99.90;;;;;;5035244;28;20510;-85
2021/07/21 01:15:09;;;;;;;15.90;5.77;;;14.90;99.90;;;;;;5036164;28;20448;-85
2021/07/21 01:17:43;;;;;;;13.43;5.83;;;14.90;99.90;;;;;;5035356;28;20928;-84
2021/07/21 01:20:58;;;;;;;17.20;6.00;;;14.80;99.90;;;;;;5032950;28;20485;-85
2021/07/21 01:24:00;;;;;;;14.70;6.10;;;14.80;99.90;;;;;;4983753;28;20449;-85
2021/07/21 01:26:32;;;;;;;13.37;5.77;;;14.80;99.90;;;;;;5033825;28;20455;-85
2021/07/21 01:29:06;;;;;;;15.50;6.37;;;14.80;99.90;;;;;;5033184;28;20476;-82
2021/07/21 01:31:37;;;;;;;13.00;5.70;;;14.70;99.90;;;;;;5044328;28;20452;-85
2021/07/21 01:34:05;;;;;;;15.33;6.20;;;14.70;99.90;;;;;;5053994;28;20545;-86
2021/07/21 01:36:37;;;;;;;14.80;5.63;;;14.70;99.90;;;;;;5054184;28;20978;-85
2021/07/21 01:39:09;;;;;;;14.30;6.60;;;14.70;99.90;;;;;;5054535;28;20472;-84
2021/07/21 01:41:38;;;;;;;13.27;5.93;;;14.60;99.90;;;;;;5044094;28;20943;-83
2021/07/21 01:44:10;;;;;;;13.50;5.43;;;14.60;99.90;;;;;;5034991;28;21035;-85
2021/07/21 01:46:38;;;;;;;11.90;5.20;;;14.60;99.90;;;;;;5035646;28;20899;-84
2021/07/21 01:49:09;;;;;;;13.13;5.60;;;14.60;99.90;;;;;;5036987;28;20543;-81
2021/07/21 01:51:37;;;;;;;14.13;5.90;;;14.60;99.90;;;;;;5048306;28;20456;-85
2021/07/21 01:54:09;;;;;;;14.00;5.93;;;14.50;99.90;;;;;;5057759;28;20478;-84
2021/07/21 01:56:37;;;;;;;14.00;6.50;;;14.50;99.90;;;;;;5057270;28;20998;-82
2021/07/21 01:59:07;;;;;;;14.47;6.30;;;14.50;99.90;;;;;;5056132;28;20482;-84
2021/07/21 02:01:34;;;;;;;15.03;6.03;;;14.50;99.90;;;;;;5057304;28;20451;-85
2021/07/21 02:04:03;;;;;;;12.17;5.47;;;14.50;99.90;;;;;;5056916;28;20456;-84
2021/07/21 02:06:33;;;;;;;12.27;5.47;;;14.50;99.90;;;;;;5056677;28;20963;-83
2021/07/21 02:09:01;;;;;;;13.77;5.20;;;14.50;99.90;;;;;;5055780;28;20491;-83
2021/07/21 02:11:28;;;;;;;17.43;7.10;;;14.50;99.90;;;;;;5056821;28;20448;-83
2021/07/21 02:14:00;;;;;;;14.30;5.53;;;14.50;99.90;;;;;;5056410;28;20452;-82
2021/07/21 02:16:42;;;;;;;13.90;6.60;;;14.40;99.90;;;;;;5057682;28;20456;-80
2021/07/21 02:19:12;;;;;;;12.67;6.33;;;14.50;99.90;;;;;;5041315;28;20505;-81
2021/07/21 02:21:41;;;;;;;14.10;6.47;;;14.50;99.90;;;;;;5037107;28;20548;-84
2021/07/21 02:24:08;;;;;;;13.50;6.17;;;14.40;99.90;;;;;;5034674;28;20467;-84
2021/07/21 02:26:38;;;;;;;13.63;6.13;;;14.40;99.90;;;;;;5014797;28;20449;-84
2021/07/21 02:32:05;;;;;;;13.50;6.03;;;14.50;99.90;;;;;;5036046;28;20523;-85
2021/07/21 02:34:34;;;;;;;12.40;5.23;;;14.50;99.90;;;;;;5036246;28;20452;-84
2021/07/21 02:37:25;;;;;;;14.80;6.17;;;14.40;99.90;;;;;;5038783;28;20495;-83
2021/07/21 02:39:58;;;;;;;17.43;6.60;;;14.40;99.90;;;;;;5006724;28;20480;-84
2021/07/21 02:42:25;;;;;;;13.97;6.33;;;14.40;99.90;;;;;;5039021;28;20452;-85
2021/07/21 02:45:00;;;;;;;13.23;6.37;;;14.40;99.90;;;;;;5039219;28;20489;-84
2021/07/21 02:47:32;;;;;;;11.60;5.73;;;14.40;99.90;;;;;;5038396;28;20460;-85
2021/07/21 02:49:59;;;;;;;13.07;5.90;;;14.40;99.90;;;;;;5035806;28;20461;-85
2021/07/21 02:52:48;;;;;;;17.10;5.90;;;14.30;99.90;;;;;;5037440;28;20459;-82
2021/07/21 02:55:20;;;;;;;13.73;6.40;;;14.30;99.90;;;;;;5037213;28;20463;-87
2021/07/21 02:57:50;;;;;;;15.03;6.17;;;14.30;99.90;;;;;;5041684;28;20452;-83
2021/07/21 03:00:19;;;;;;;12.43;6.47;;;14.20;99.90;;;;;;5055844;28;20472;-85
2021/07/21 03:02:50;;;;;;;12.60;5.47;;;14.20;99.90;;;;;;5058529;28;20447;-84
2021/07/21 03:05:20;;;;;;;14.33;6.33;;;14.20;99.90;;;;;;5056413;28;20479;-84
2021/07/21 03:07:49;;;;;;;16.30;6.17;;;14.20;99.90;;;;;;5056355;28;20464;-84
2021/07/21 03:10:17;;;;;;;14.57;6.30;;;14.20;99.90;;;;;;5056778;28;20499;-85
2021/07/21 03:12:47;;;;;;;12.17;5.90;;;14.10;99.90;;;;;;5056952;28;20466;-83
2021/07/21 03:15:16;;;;;;;14.97;7.57;;;14.20;99.90;;;;;;5057595;28;20454;-85
2021/07/21 03:17:46;;;;;;;12.17;6.10;;;14.10;99.90;;;;;;5053776;28;20453;-83
2021/07/21 03:20:17;;;;;;;15.37;6.60;;;14.10;99.90;;;;;;5037409;28;21116;-84
2021/07/21 03:22:59;;;;;;;14.60;6.40;;;14.10;99.90;;;;;;5037729;28;20495;-83
2021/07/21 03:25:30;;;;;;;15.30;6.70;;;14.10;99.90;;;;;;5037856;28;20475;-84
2021/07/21 03:28:00;;;;;;;12.17;6.13;;;14.10;99.90;;;;;;5041721;28;20538;-83
2021/07/21 03:30:32;;;;;;;13.63;6.80;;;14.00;99.90;;;;;;5049039;22;20497;-82
2021/07/21 03:33:09;;;;;;;11.93;5.63;;;14.00;99.90;;;;;;5037213;28;20460;-84
2021/07/21 03:36:00;;;;;;;13.40;6.23;;;14.00;99.90;;;;;;5037784;28;20468;-81
2021/07/21 03:38:33;;;;;;;12.90;6.30;;;14.00;99.90;;;;;;5005591;28;20454;-82
2021/07/21 03:41:00;;;;;;;16.83;7.50;;;14.00;99.90;;;;;;5057425;28;20466;-84
2021/07/21 03:43:32;;;;;;;13.80;6.70;;;14.00;99.90;;;;;;5060327;28;20519;-83
2021/07/21 03:46:00;;;;;;;15.70;6.80;;;14.00;99.90;;;;;;5058379;28;20487;-84
2021/07/21 03:48:28;;;;;;;15.10;6.80;;;14.00;99.90;;;;;;5055700;28;20452;-82
2021/07/21 03:51:07;;;;;;;12.10;5.30;;;14.00;99.90;;;;;;5016817;28;20473;-85
2021/07/21 03:53:43;;;;;;;13.20;6.43;;;14.00;99.90;;;;;;5017149;28;20853;-84
2021/07/21 03:56:14;;;;;;;12.93;6.27;;;14.00;99.90;;;;;;5015297;28;20426;-85
2021/07/21 03:58:41;;;;;;;15.83;6.33;;;14.00;99.90;;;;;;5029460;28;20504;-86
2021/07/21 04:03:52;;;;;;;15.80;7.20;;;14.10;99.90;;;;;;5038384;28;20448;-84
2021/07/21 04:06:22;;;;;;;14.53;6.83;;;14.00;99.90;;;;;;5038428;28;20831;-84
2021/07/21 04:08:51;;;;;;;14.27;6.57;;;14.10;99.90;;;;;;5037048;28;20519;-83
2021/07/21 04:17:41;;;;;;;15.30;7.20;;;14.20;99.90;;;;;;4898397;29;20958;-85
2021/07/21 04:20:09;;;;;;;13.47;6.70;;;14.20;99.90;;;;;;5002787;28;20524;-87
2021/07/21 04:22:39;;;;;;;12.73;6.83;;;14.20;99.90;;;;;;5021898;28;20458;-86
2021/07/21 04:25:09;;;;;;;13.63;6.33;;;14.20;99.90;;;;;;5026812;28;20477;-86
2021/07/21 04:27:37;;;;;;;15.57;6.90;;;14.20;99.90;;;;;;5028746;28;20499;-84
2021/07/21 04:30:05;;;;;;;17.53;6.63;;;14.20;99.90;;;;;;5044272;28;20475;-87
2021/07/21 04:32:33;;;;;;;13.67;7.50;;;14.30;99.90;;;;;;5036033;28;20437;-87
2021/07/21 04:35:00;;;;;;;15.37;7.40;;;14.30;99.90;;;;;;5033429;28;20457;-87
2021/07/21 04:37:27;;;;;;;15.37;7.27;;;14.40;99.90;;;;;;5033826;28;20544;-87
2021/07/21 04:39:56;;;;;;;15.70;7.10;;;14.40;99.90;;;;;;5033085;28;20469;-87
2021/07/21 04:42:26;;;;;;;14.93;7.80;;;14.40;99.90;;;;;;5033317;28;20453;-87
2021/07/21 04:44:53;;;;;;;14.07;8.00;;;14.40;99.90;;;;;;5034069;28;21071;-87
2021/07/21 04:47:21;;;;;;;13.70;6.90;;;14.50;99.90;;;;;;5033318;28;20457;-87
2021/07/21 04:49:48;;;;;;;14.53;7.20;;;14.50;99.90;;;;;;5050268;28;20480;-88
2021/07/21 04:52:17;;;;;;;14.83;6.60;;;14.60;99.90;;;;;;5053595;28;20952;-87
2021/07/21 04:54:45;;;;;;;14.47;7.13;;;14.60;99.90;;;;;;5053668;28;20448;-87
2021/07/21 04:57:13;;;;;;;17.87;7.87;;;14.70;99.90;;;;;;5045422;28;20445;-87
2021/07/21 04:59:40;;;;;;;13.97;7.50;;;14.80;99.90;;;;;;5036013;28;20475;-87
2021/07/21 05:02:07;;;;;;;16.17;8.07;;;14.90;99.90;;;;;;5034358;28;21001;-87
2021/07/21 05:04:35;;;;;;;14.00;6.93;;;14.90;99.90;;;;;;5031625;28;20830;-87
2021/07/21 05:07:02;;;;;;;12.50;6.60;;;15.00;99.90;;;;;;5040358;28;21011;-87
2021/07/21 05:09:29;;;;;;;19.50;7.20;;;15.00;99.90;;;;;;5051586;28;20487;-87
2021/07/21 05:11:56;;;;;;;17.97;8.43;;;15.10;99.90;;;;;;5051339;28;20994;-87
2021/07/21 05:14:24;;;;;;;15.57;8.13;;;15.10;99.90;;;;;;5047424;28;20467;-87
2021/07/21 05:16:51;;;;;;;15.30;7.60;;;15.20;99.90;;;;;;5054199;28;20890;-88
2021/07/21 05:19:18;;;;;;;14.00;6.93;;;15.20;99.90;;;;;;5053108;28;20467;-86
2021/07/21 05:21:45;;;;;;;14.73;6.40;;;15.30;99.90;;;;;;5054022;28;20476;-87
2021/07/21 05:24:12;;;;;;;15.60;7.40;;;15.40;99.90;;;;;;5055497;28;20466;-86
2021/07/21 05:26:41;;;;;;;13.30;7.67;;;15.50;99.90;;;;;;5050077;28;20502;-87
2021/07/21 05:29:08;;;;;;;14.87;6.60;;;15.50;99.90;;;;;;5033619;28;20480;-87
2021/07/21 05:31:36;;;;;;;13.43;6.73;;;15.60;99.90;;;;;;5039579;28;20462;-87
2021/07/21 05:34:03;;;;;;;14.20;6.33;;;15.60;99.90;;;;;;5044361;28;20452;-86
2021/07/21 05:36:35;;;;;;;15.93;6.73;;;15.70;99.90;;;;;;5053276;28;20456;-86
2021/07/21 05:39:03;;;;;;;15.20;5.67;;;15.80;99.90;;;;;;5050510;28;20475;-86
2021/07/21 05:41:30;;;;;;;12.70;6.57;;;15.80;99.90;;;;;;5053593;28;20451;-87
2021/07/21 05:43:57;;;;;;;13.67;8.10;;;15.90;99.90;;;;;;5038168;28;20449;-86
2021/07/21 05:46:24;;;;;;;12.43;6.10;;;16.00;99.90;;;;;;5039278;28;20550;-87
2021/07/21 05:48:52;;;;;;;14.30;6.10;;;16.10;99.90;;;;;;5041036;28;20468;-87
2021/07/21 05:51:19;;;;;;;13.07;6.20;;;16.10;99.90;;;;;;5046011;28;20445;-84
2021/07/21 05:53:46;;;;;;;15.40;6.63;;;16.20;99.90;;;;;;5056131;28;20531;-84
2021/07/21 05:56:14;;;;;;;13.30;6.97;;;16.30;99.90;;;;;;5066265;28;20444;-83
2021/07/21 05:58:41;;;;;;;12.23;6.17;;;16.40;99.90;;;;;;5066008;28;20451;-85
2021/07/21 06:01:08;;;;;;;14.33;5.70;;;16.50;99.90;;;;;;5067216;28;20490;-85
2021/07/21 06:03:35;;;;;;;17.20;7.57;;;16.60;99.90;;;;;;5087816;22;21020;-86
2021/07/21 06:06:03;;;;;;;14.20;6.03;;;16.60;99.90;;;;;;5047743;28;20556;-85
2021/07/21 06:08:30;;;;;;;11.73;5.13;;;16.70;99.90;;;;;;5044396;28;20485;-82
2021/07/21 06:10:58;;;;;;;16.73;6.53;;;16.80;99.90;;;;;;5046402;28;20465;-87
2021/07/21 06:13:25;;;;;;;13.70;5.83;;;16.90;99.90;;;;;;5047876;28;20511;-87
2021/07/21 06:15:53;;;;;;;14.97;5.70;;;16.90;99.90;;;;;;5046763;28;20441;-85
2021/07/21 06:18:20;;;;;;;16.57;5.90;;;17.00;99.90;;;;;;5046779;28;20502;-86
2021/07/21 06:20:47;;;;;;;25.33;6.23;;;17.20;99.90;;;;;;5058164;28;20425;-82
2021/07/21 06:23:17;;;;;;;17.60;5.90;;;17.20;99.90;;;;;;5046729;28;20460;-85
2021/07/21 06:25:44;;;;;;;18.20;7.50;;;17.30;99.90;;;;;;5043560;28;20863;-85
2021/07/21 06:28:10;;;;;;;14.60;5.40;;;17.30;99.90;;;;;;5046878;28;20455;-85
2021/07/21 06:30:37;;;;;;;17.20;5.60;;;17.40;99.90;;;;;;5051054;28;20452;-85
2021/07/21 06:33:04;;;;;;;16.47;5.20;;;17.50;99.90;;;;;;5047437;28;20479;-85
2021/07/21 06:35:31;;;;;;;16.90;6.07;;;17.60;99.90;;;;;;5040494;28;20491;-86
2021/07/21 06:38:01;;;;;;;14.53;5.43;;;17.70;99.90;;;;;;5042805;28;20928;-86
2021/07/21 06:40:29;;;;;;;15.83;5.40;;;17.70;99.90;;;;;;5042236;28;20536;-86
2021/07/21 06:42:56;;;;;;;15.33;4.90;;;17.80;99.90;;;;;;5044504;28;20518;-84
2021/07/21 06:45:23;;;;;;;19.43;6.90;;;17.90;99.90;;;;;;5045020;28;20477;-86
2021/07/21 06:47:50;;;;;;;14.30;3.97;;;18.00;99.90;;;;;;5047027;28;20531;-87
2021/07/21 06:50:17;;;;;;;17.23;4.70;;;18.10;99.90;;;;;;5044502;28;20457;-86
2021/07/21 06:52:44;;;;;;;19.93;5.63;;;18.20;99.90;;;;;;5042504;28;20464;-86
2021/07/21 06:55:14;;;;;;;13.90;4.60;;;18.40;99.90;;;;;;5043173;28;20447;-86
2021/07/21 06:57:43;;;;;;;14.60;5.00;;;18.50;99.90;;;;;;5041739;28;20447;-87
2021/07/21 07:00:11;;;;;;;19.10;5.60;;;18.60;99.90;;;;;;5041963;28;20906;-87
2021/07/21 07:02:41;;;;;;;17.50;5.40;;;18.70;99.90;;;;;;5038927;28;20456;-86
2021/07/21 07:05:09;;;;;;;21.67;5.10;;;18.80;99.90;;;;;;5036249;28;20887;-87
2021/07/21 07:07:38;;;;;;;15.57;4.70;;;18.80;99.90;;;;;;5032753;28;20519;-85
2021/07/21 07:10:08;;;;;;;13.80;5.00;;;18.90;99.90;;;;;;5037433;28;20464;-85
2021/07/21 07:12:36;;;;;;;16.43;5.03;;;19.00;99.90;;;;;;5037051;28;20461;-85
2021/07/21 07:15:06;;;;;;;16.43;5.10;;;19.10;99.90;;;;;;5038140;28;20476;-85
2021/07/21 07:17:37;;;;;;;15.70;4.40;;;19.20;99.90;;;;;;5038734;28;20507;-84
2021/07/21 07:20:05;;;;;;;18.50;4.50;;;19.30;99.90;;;;;;5035270;28;20476;-84
2021/07/21 07:22:35;;;;;;;20.50;4.17;;;19.40;99.90;;;;;;5039644;28;20468;-86
2021/07/21 07:25:04;;;;;;;17.53;5.00;;;19.60;99.90;;;;;;5039030;28;20476;-85
2021/07/21 07:27:33;;;;;;;14.17;3.67;;;19.60;99.90;;;;;;5040575;28;20480;-85
2021/07/21 07:30:03;;;;;;;17.93;3.90;;;19.70;99.90;;;;;;5038965;28;20480;-85
2021/07/21 07:32:38;;;;;;;17.93;6.03;;;19.80;99.90;;;;;;5039222;28;20528;-86
2021/07/21 07:35:14;;;;;;;16.30;4.03;;;19.80;99.90;;;;;;5042938;28;21080;-85
2021/07/21 07:37:41;;;;;;;21.60;4.50;;;19.80;99.90;;;;;;5040606;28;20502;-85
2021/07/21 07:43:07;;;;;;;18.03;4.17;;;20.00;99.90;;;;;;5154895;27;20555;-85
2021/07/21 07:45:34;;;;;;;19.33;4.80;;;20.10;99.90;;;;;;5127821;27;20532;-85
2021/07/21 07:48:01;;;;;;;20.50;5.20;;;20.20;99.90;;;;;;5116249;28;20552;-85
2021/07/21 07:50:28;;;;;;;20.10;4.00;;;20.40;99.90;;;;;;5117544;28;20456;-84
2021/07/21 07:52:56;;;;;;;23.23;4.40;;;20.50;99.90;;;;;;5117508;28;20445;-86
2021/07/21 07:55:22;;;;;;;18.20;4.90;;;20.70;99.90;;;;;;5133256;27;20440;-85
2021/07/21 07:57:50;;;;;;;17.07;4.37;;;20.90;99.90;;;;;;5140282;28;20429;-87
2021/07/21 08:00:21;;;;;;;19.00;5.37;;;21.00;99.90;;;;;;5141456;27;20455;-89
2021/07/21 08:02:48;;;;;;;18.80;4.70;;;21.10;99.90;;;;;;5140379;27;20496;-90
2021/07/21 08:05:15;;;;;;;18.80;5.07;;;21.30;99.90;;;;;;5130741;28;20492;-87
2021/07/21 08:07:42;;;;;;;19.03;5.43;;;21.50;99.90;;;;;;5137956;28;20506;-89
2021/07/21 08:10:13;;;;;;;19.27;4.83;;;21.60;99.90;;;;;;5114982;28;20504;-84
2021/07/21 08:12:40;;;;;;;23.30;4.10;;;21.70;99.90;;;;;;5114177;28;20438;-85
2021/07/21 08:15:08;;;;;;;27.40;4.80;;;21.80;99.90;;;;;;5128536;28;20463;-87
2021/07/21 08:17:36;;;;;;;31.40;4.10;;;21.90;99.90;;;;;;5136908;28;20436;-85
2021/07/21 08:20:05;;;;;;;45.60;5.50;;;22.10;99.90;;;;;;5138595;27;20484;-83
2021/07/21 08:22:38;;;;;;;49.43;5.50;;;22.20;99.90;;;;;;5136914;27;20497;-85
2021/07/21 08:25:07;;;;;;;45.07;4.93;;;22.20;99.90;;;;;;5128819;28;20461;-83
2021/07/21 08:27:34;;;;;;;41.97;4.77;;;22.40;99.90;;;;;;5138253;27;20480;-84
2021/07/21 08:30:01;;;;;;;75.50;43.43;;;22.50;99.90;;;;;;5139394;28;20480;-85
2021/07/21 08:32:28;;;;;;;106.53;95.90;;;22.60;99.90;;;;;;5134733;27;20512;-85
2021/07/21 08:34:56;;;;;;;235.33;219.13;;;22.80;99.90;;;;;;5134382;27;20525;-87
2021/07/21 08:37:23;;;;;;;79.67;41.03;;;23.00;99.90;;;;;;5135734;27;21024;-84
2021/07/21 08:39:50;;;;;;;129.47;117.10;;;23.20;99.90;;;;;;5139357;27;20508;-83
2021/07/21 08:42:17;;;;;;;329.80;308.90;;;23.40;99.90;;;;;;5136594;28;20472;-84
2021/07/21 08:44:45;;;;;;;170.93;157.20;;;23.60;99.90;;;;;;5121531;28;20454;-84
2021/07/21 08:47:12;;;;;;;147.23;134.83;;;23.60;99.90;;;;;;5124660;28;20476;-86
2021/07/21 08:49:39;;;;;;;205.13;191.07;;;23.50;99.90;;;;;;5128131;28;20480;-85
2021/07/21 08:52:08;;;;;;;189.47;175.63;;;23.40;99.90;;;;;;5130981;28;20469;-84
2021/07/21 08:54:36;;;;;;;126.43;114.23;;;23.20;99.90;;;;;;5127339;28;20473;-84
2021/07/21 08:57:04;;;;;;;288.10;270.37;;;23.00;99.90;;;;;;5134000;28;20453;-85
2021/07/21 08:59:32;;;;;;;246.67;231.40;;;22.90;99.90;;;;;;5128692;28;20480;-83
2021/07/21 09:01:59;;;;;;;523.00;493.87;;;22.60;99.90;;;;;;5130999;28;20457;-83
2021/07/21 09:04:26;;;;;;;199.17;185.13;;;22.30;99.90;;;;;;5131126;28;20471;-83
2021/07/21 09:06:53;;;;;;;87.87;72.53;;;22.00;99.90;;;;;;5131814;28;20473;-84
2021/07/21 09:09:22;;;;;;;69.57;32.43;;;22.00;99.90;;;;;;5127932;28;20434;-83
2021/07/21 09:11:49;;;;;;;61.97;17.93;;;22.00;99.90;;;;;;5118481;28;20498;-85
2021/07/21 09:14:16;;;;;;;73.57;36.13;;;21.90;99.90;;;;;;5110634;28;20533;-84
2021/07/21 09:16:43;;;;;;;60.23;18.87;;;21.80;99.90;;;;;;5111790;28;20462;-84
2021/07/21 09:19:13;;;;;;;62.30;21.47;;;21.80;99.90;;;;;;5110632;28;20442;-84
2021/07/21 09:21:42;;;;;;;134.97;123.10;;;21.70;99.90;;;;;;5111545;28;20486;-84
2021/07/21 09:24:20;;;;;;;62.37;17.97;;;21.70;99.90;;;;;;5111570;28;20469;-84
2021/07/21 09:26:49;;;;;;;167.20;153.73;;;21.70;99.90;;;;;;5127886;28;20453;-84
2021/07/21 09:29:16;;;;;;;73.80;35.33;;;21.60;99.90;;;;;;5130817;28;20449;-84
2021/07/21 09:31:44;;;;;;;422.57;398.27;;;21.60;99.90;;;;;;5131231;28;20437;-84
2021/07/21 09:34:13;;;;;;;367.87;347.07;;;21.50;99.90;;;;;;5131849;28;20480;-84
2021/07/21 09:36:40;;;;;;;118.37;107.40;;;21.50;99.90;;;;;;5131610;28;20464;-85
2021/07/21 09:39:10;;;;;;;417.53;393.87;;;21.50;99.90;;;;;;5131470;28;20461;-84
2021/07/21 09:41:38;;;;;;;425.03;401.20;;;21.30;99.90;;;;;;5129191;28;20826;-84
2021/07/21 09:44:07;;;;;;;371.73;350.57;;;21.30;99.90;;;;;;5131571;28;20473;-84
2021/07/21 09:46:38;;;;;;;339.47;319.97;;;21.40;99.90;;;;;;5130839;28;20549;-84
2021/07/21 09:49:04;;;;;;;449.47;424.50;;;21.40;99.90;;;;;;5130988;28;20511;-85
2021/07/21 09:51:34;;;;;;;293.30;274.07;;;21.40;99.90;;;;;;5130990;28;20437;-84
2021/07/21 09:54:13;;;;;;;1999.90;999.90;;;21.40;99.90;;;;;;5131301;28;20535;-85
2021/07/21 09:56:40;;;;;;;1999.90;999.90;;;21.40;99.90;;;;;;5130574;28;20524;-84
2021/07/21 09:59:22;;;;;;;343.27;322.90;;;21.50;99.90;;;;;;5124159;28;20481;-84
2021/07/21 10:01:50;;;;;;;200.33;185.60;;;21.60;99.90;;;;;;5111284;28;20541;-84
2021/07/21 10:04:34;;;;;;;245.97;229.50;;;21.80;99.90;;;;;;5112825;28;20945;-84
2021/07/21 10:07:03;;;;;;;348.27;327.93;;;22.00;99.90;;;;;;5111345;28;20450;-84
2021/07/21 10:09:30;;;;;;;320.17;300.33;;;22.00;99.90;;;;;;5124144;28;20536;-85
2021/07/21 10:11:57;;;;;;;274.37;256.27;;;22.20;99.90;;;;;;5129977;27;20497;-85
2021/07/21 10:14:26;;;;;;;373.13;350.33;;;22.30;99.90;;;;;;5131109;28;20536;-85
2021/07/21 10:16:54;;;;;;;314.33;294.87;;;22.40;99.90;;;;;;5124883;28;20460;-86
2021/07/21 10:19:24;;;;;;;1999.90;999.90;;;22.50;99.90;;;;;;5126045;28;20559;-86
2021/07/21 10:21:55;;;;;;;160.03;145.73;;;22.50;99.90;;;;;;5111978;28;20514;-87
2021/07/21 10:24:24;;;;;;;299.30;280.53;;;22.70;99.90;;;;;;5122699;28;20483;-86
2021/07/21 10:26:51;;;;;;;1999.90;999.90;;;22.80;99.90;;;;;;5130813;28;20498;-86
2021/07/21 10:29:19;;;;;;;1999.90;999.90;;;22.80;99.90;;;;;;5126032;28;20472;-86
2021/07/21 10:31:48;;;;;;;1999.90;999.90;;;22.80;99.90;;;;;;5127574;28;20486;-86
2021/07/21 10:34:16;;;;;;;1999.90;999.90;;;22.90;99.90;;;;;;5129803;28;20472;-86
2021/07/21 10:36:43;;;;;;;1999.90;999.90;;;22.90;99.90;;;;;;5125412;28;20451;-87
2021/07/21 10:39:15;;;;;;;1999.90;999.90;;;23.00;99.90;;;;;;5118799;28;20460;-85
2021/07/21 10:41:45;;;;;;;349.93;329.47;;;23.00;99.90;;;;;;5122769;28;20460;-86
2021/07/21 10:44:15;;;;;;;1999.90;999.90;;;23.10;99.90;;;;;;5128981;28;20563;-87
2021/07/21 10:46:44;;;;;;;172.37;159.57;;;23.10;99.90;;;;;;5123336;28;20809;-87
2021/07/21 10:49:23;;;;;;;1999.90;999.90;;;23.20;99.90;;;;;;5122340;28;20969;-86
2021/07/21 10:52:54;;;;;;;1999.90;999.90;;;23.30;99.90;;;;;;5126763;28;20471;-86
2021/07/21 10:55:26;;;;;;;1999.90;999.90;;;23.30;99.90;;;;;;5132849;28;20441;-87
2021/07/21 11:00:55;;;;;;;1999.90;999.90;;;23.40;99.90;;;;;;5126335;28;20463;-85
2021/07/21 11:03:24;;;;;;;1999.90;999.90;;;23.60;99.90;;;;;;5132756;28;20477;-86
2021/07/21 11:06:01;;;;;;;1999.90;999.90;;;23.60;99.90;;;;;;5127055;28;20476;-86
2021/07/21 11:08:29;;;;;;;426.23;400.90;;;23.80;99.90;;;;;;5122751;28;20473;-87
2021/07/21 11:10:58;;;;;;;1999.90;999.90;;;23.90;99.90;;;;;;5130391;28;20449;-85
2021/07/21 11:13:39;;;;;;;1999.90;999.90;;;24.20;99.90;;;;;;5132457;28;20477;-87
2021/07/21 11:16:07;;;;;;;1999.90;999.90;;;24.30;99.90;;;;;;5124625;28;20457;-85
2021/07/21 11:18:43;;;;;;;1999.90;999.90;;;24.40;99.90;;;;;;5119404;28;20510;-86
2021/07/21 11:21:14;;;;;;;1999.90;999.90;;;24.40;99.90;;;;;;5127037;28;20491;-85
2021/07/21 11:23:48;;;;;;;1999.90;999.90;;;24.40;99.90;;;;;;5126149;28;20509;-86
2021/07/21 11:26:41;;;;;;;1999.90;999.90;;;24.30;99.90;;;;;;5126964;28;20506;-86
2021/07/21 11:29:48;;;;;;;1999.90;999.90;;;24.30;99.90;;;;;;5125364;28;20443;-86
2021/07/21 11:32:36;;;;;;;1999.90;999.90;;;24.20;99.90;;;;;;5124827;28;20445;-86
2021/07/21 11:35:44;;;;;;;1999.90;999.90;;;24.20;99.90;;;;;;5123238;28;20548;-87
2021/07/21 11:38:48;;;;;;;1999.90;999.90;;;24.20;99.90;;;;;;5129011;28;20508;-84
2021/07/21 11:41:50;;;;;;;1999.90;999.90;;;24.20;99.90;;;;;;5118583;28;20453;-85
2021/07/21 11:44:25;;;;;;;1999.90;999.90;;;24.30;99.90;;;;;;5103869;28;20458;-87
2021/07/21 11:46:52;;;;;;;1999.90;999.90;;;24.40;99.90;;;;;;5123493;28;20456;-86
2021/07/21 11:49:21;;;;;;;1999.90;999.90;;;24.60;99.90;;;;;;5122905;28;20524;-86
2021/07/21 11:51:52;;;;;;;1999.90;999.90;;;24.60;99.90;;;;;;5127461;28;20455;-86
2021/07/21 11:54:27;;;;;;;1999.90;999.90;;;24.60;99.90;;;;;;5129936;28;20498;-87
2021/07/21 11:56:55;;;;;;;1999.90;999.90;;;24.70;99.90;;;;;;5135769;28;20534;-86
2021/07/21 11:59:30;;;;;;;1999.90;999.90;;;24.80;99.90;;;;;;5128756;28;20433;-85
2021/07/21 12:02:06;;;;;;;1999.90;999.90;;;24.80;99.90;;;;;;5135562;28;20441;-85
2021/07/21 12:04:33;;;;;;;1999.90;999.90;;;24.80;99.90;;;;;;5133922;28;20484;-84
2021/07/21 12:07:01;;;;;;;1999.90;999.90;;;24.80;99.90;;;;;;5130923;28;20851;-85
2021/07/21 12:09:31;;;;;;;1999.90;999.90;;;24.90;99.90;;;;;;5114354;28;20441;-85
2021/07/21 12:12:00;;;;;;;1999.90;999.90;;;25.10;99.90;;;;;;5128969;28;20445;-85
2021/07/21 12:14:28;;;;;;;1999.90;999.90;;;25.20;99.90;;;;;;5127695;28;20545;-86
2021/07/21 12:17:03;;;;;;;1999.90;999.90;;;25.30;99.90;;;;;;5132057;28;20504;-86
2021/07/21 12:19:31;;;;;;;1999.90;999.90;;;25.40;99.90;;;;;;5130265;28;20440;-85
2021/07/21 12:22:05;;;;;;;1999.90;999.90;;;25.50;99.90;;;;;;5131519;28;21159;-85
2021/07/21 12:24:42;;;;;;;1999.90;999.90;;;25.60;99.90;;;;;;5123866;28;20477;-85
2021/07/21 12:27:10;;;;;;;1999.90;999.90;;;25.60;99.90;;;;;;5124604;28;20972;-85
2021/07/21 12:29:38;;;;;;;1999.90;999.90;;;25.50;99.90;;;;;;5125428;28;20481;-87
2021/07/21 12:32:07;;;;;;;1999.90;999.90;;;25.60;99.90;;;;;;5126716;28;20823;-85
2021/07/21 12:34:35;;;;;;;1999.90;999.90;;;25.60;99.90;;;;;;5128029;28;20476;-85
2021/07/21 12:37:02;;;;;;;1999.90;999.90;;;25.70;99.90;;;;;;5136324;28;20448;-87
2021/07/21 12:39:31;;;;;;;1999.90;999.90;;;25.70;99.90;;;;;;5128799;28;20465;-85
2021/07/21 12:42:10;;;;;;;1999.90;999.90;;;25.70;99.90;;;;;;5126248;28;20539;-86
2021/07/21 12:44:39;;;;;;;1999.90;999.90;;;25.50;99.90;;;;;;5123112;28;20622;-85
2021/07/21 12:47:19;;;;;;;1999.90;999.90;;;25.70;99.90;;;;;;5127010;28;20468;-84
2021/07/21 12:49:48;;;;;;;1999.90;999.90;;;25.80;99.90;;;;;;5124671;28;20441;-86
2021/07/21 12:52:18;;;;;;;1999.90;999.90;;;25.90;99.90;;;;;;5125824;28;20433;-84
2021/07/21 12:54:53;;;;;;;1999.90;999.90;;;26.00;99.90;;;;;;5127402;28;20461;-85
2021/07/21 12:57:39;;;;;;;1999.90;999.90;;;26.10;99.90;;;;;;5128246;28;20500;-85
2021/07/21 13:00:12;;;;;;;1999.90;999.90;;;26.30;99.90;;;;;;5128803;28;20473;-86
2021/07/21 13:02:40;;;;;;;1999.90;999.90;;;26.70;99.90;;;;;;5129453;28;20509;-85